sensor_id;sensor_type;location;lat;lon;timestamp;P1;durP1;ratioP1;P2;durP2;ratioP2
20179;SDS011;10249;48.900;9.090;2023-02-04T00:01:15;10.47;;;9.37;;
20179;SDS011;10249;48.900;9.090;2023-02-04T00:03:42;9.93;;;8.50;;
20179;SDS011;10249;48.900;9.090;2023-02-04T00:06:09;8.90;;;7.50;;
20179;SDS011;10249;48.900;9.090;2023-02-04T00:08:36;7.13;;;6.37;;
20179;SDS011;10249;48.900;9.090;2023-02-04T00:11:03;7.70;;;6.90;;
20179;SDS011;10249;48.900;9.090;2023-02-04T00:13:31;9.40;;;8.40;;
20179;SDS011;10249;48.900;9.090;2023-02-04T00:15:59;9.50;;;8.60;;
20179;SDS011;10249;48.900;9.090;2023-02-04T00:18:26;8.40;;;7.53;;
20179;SDS011;10249;48.900;9.090;2023-02-04T00:20:54;8.27;;;7.40;;
20179;SDS011;10249;48.900;9.090;2023-02-04T00:23:21;9.30;;;8.60;;
20179;SDS011;10249;48.900;9.090;2023-02-04T00:25:48;9.40;;;8.53;;
20179;SDS011;10249;48.900;9.090;2023-02-04T00:28:15;9.47;;;8.37;;
20179;SDS011;10249;48.900;9.090;2023-02-04T00:30:43;9.63;;;8.77;;
20179;SDS011;10249;48.900;9.090;2023-02-04T00:33:11;9.13;;;8.33;;
20179;SDS011;10249;48.900;9.090;2023-02-04T00:35:38;7.80;;;7.20;;
20179;SDS011;10249;48.900;9.090;2023-02-04T00:38:05;8.50;;;7.83;;
20179;SDS011;10249;48.900;9.090;2023-02-04T00:40:32;7.37;;;6.80;;
20179;SDS011;10249;48.900;9.090;2023-02-04T00:43:00;9.23;;;8.40;;
20179;SDS011;10249;48.900;9.090;2023-02-04T00:45:27;9.37;;;8.50;;
20179;SDS011;10249;48.900;9.090;2023-02-04T00:47:55;9.60;;;8.67;;
20179;SDS011;10249;48.900;9.090;2023-02-04T00:50:22;9.47;;;8.57;;
20179;SDS011;10249;48.900;9.090;2023-02-04T00:52:50;6.90;;;6.30;;
20179;SDS011;10249;48.900;9.090;2023-02-04T00:55:17;8.33;;;7.63;;
20179;SDS011;10249;48.900;9.090;2023-02-04T00:57:44;5.57;;;5.13;;
20179;SDS011;10249;48.900;9.090;2023-02-04T01:00:12;7.63;;;7.03;;
20179;SDS011;10249;48.900;9.090;2023-02-04T01:02:39;10.60;;;8.73;;
20179;SDS011;10249;48.900;9.090;2023-02-04T01:05:08;9.13;;;8.10;;
20179;SDS011;10249;48.900;9.090;2023-02-04T01:07:35;8.90;;;8.00;;
20179;SDS011;10249;48.900;9.090;2023-02-04T01:10:02;5.57;;;5.07;;
20179;SDS011;10249;48.900;9.090;2023-02-04T01:12:30;8.60;;;7.70;;
20179;SDS011;10249;48.900;9.090;2023-02-04T01:14:57;11.97;;;9.47;;
20179;SDS011;10249;48.900;9.090;2023-02-04T01:17:24;11.03;;;7.97;;
20179;SDS011;10249;48.900;9.090;2023-02-04T01:19:51;8.50;;;7.37;;
20179;SDS011;10249;48.900;9.090;2023-02-04T01:22:19;8.27;;;7.40;;
20179;SDS011;10249;48.900;9.090;2023-02-04T01:24:46;7.70;;;6.83;;
20179;SDS011;10249;48.900;9.090;2023-02-04T01:27:14;7.80;;;6.13;;
20179;SDS011;10249;48.900;9.090;2023-02-04T01:29:41;8.50;;;7.50;;
20179;SDS011;10249;48.900;9.090;2023-02-04T01:32:08;7.87;;;7.17;;
20179;SDS011;10249;48.900;9.090;2023-02-04T01:34:35;6.73;;;6.10;;
20179;SDS011;10249;48.900;9.090;2023-02-04T01:37:03;7.33;;;6.73;;
20179;SDS011;10249;48.900;9.090;2023-02-04T01:39:32;6.80;;;6.20;;
20179;SDS011;10249;48.900;9.090;2023-02-04T01:41:59;6.60;;;6.20;;
20179;SDS011;10249;48.900;9.090;2023-02-04T01:44:26;5.90;;;5.50;;
20179;SDS011;10249;48.900;9.090;2023-02-04T01:46:53;5.70;;;5.20;;
20179;SDS011;10249;48.900;9.090;2023-02-04T01:49:20;5.50;;;5.10;;
20179;SDS011;10249;48.900;9.090;2023-02-04T01:51:47;6.17;;;5.67;;
20179;SDS011;10249;48.900;9.090;2023-02-04T01:54:14;6.13;;;5.60;;
20179;SDS011;10249;48.900;9.090;2023-02-04T01:56:45;6.03;;;5.67;;
20179;SDS011;10249;48.900;9.090;2023-02-04T01:59:14;6.87;;;6.37;;
20179;SDS011;10249;48.900;9.090;2023-02-04T02:01:42;5.83;;;5.50;;
20179;SDS011;10249;48.900;9.090;2023-02-04T02:04:10;6.07;;;5.67;;
20179;SDS011;10249;48.900;9.090;2023-02-04T02:06:38;5.97;;;5.50;;
20179;SDS011;10249;48.900;9.090;2023-02-04T02:09:07;5.93;;;5.63;;
20179;SDS011;10249;48.900;9.090;2023-02-04T02:11:34;6.53;;;6.03;;
20179;SDS011;10249;48.900;9.090;2023-02-04T02:14:02;8.80;;;5.60;;
20179;SDS011;10249;48.900;9.090;2023-02-04T02:16:29;6.10;;;5.50;;
20179;SDS011;10249;48.900;9.090;2023-02-04T02:18:56;6.73;;;6.20;;
20179;SDS011;10249;48.900;9.090;2023-02-04T02:21:27;5.47;;;5.03;;
20179;SDS011;10249;48.900;9.090;2023-02-04T02:23:57;5.50;;;4.97;;
20179;SDS011;10249;48.900;9.090;2023-02-04T02:26:26;6.83;;;5.27;;
20179;SDS011;10249;48.900;9.090;2023-02-04T02:28:53;6.67;;;5.63;;
20179;SDS011;10249;48.900;9.090;2023-02-04T02:31:20;6.40;;;6.00;;
20179;SDS011;10249;48.900;9.090;2023-02-04T02:33:48;7.70;;;6.93;;
20179;SDS011;10249;48.900;9.090;2023-02-04T02:36:15;8.87;;;8.13;;
20179;SDS011;10249;48.900;9.090;2023-02-04T02:38:43;9.00;;;8.10;;
20179;SDS011;10249;48.900;9.090;2023-02-04T02:41:12;8.83;;;8.10;;
20179;SDS011;10249;48.900;9.090;2023-02-04T02:43:39;12.53;;;8.23;;
20179;SDS011;10249;48.900;9.090;2023-02-04T02:46:06;9.77;;;9.02;;
20179;SDS011;10249;48.900;9.090;2023-02-04T02:48:34;9.00;;;8.30;;
20179;SDS011;10249;48.900;9.090;2023-02-04T02:51:01;9.53;;;8.70;;
20179;SDS011;10249;48.900;9.090;2023-02-04T02:53:28;9.43;;;8.63;;
20179;SDS011;10249;48.900;9.090;2023-02-04T02:55:55;9.20;;;8.40;;
20179;SDS011;10249;48.900;9.090;2023-02-04T02:58:25;8.30;;;7.72;;
20179;SDS011;10249;48.900;9.090;2023-02-04T03:00:53;8.33;;;7.80;;
20179;SDS011;10249;48.900;9.090;2023-02-04T03:03:20;9.27;;;8.37;;
20179;SDS011;10249;48.900;9.090;2023-02-04T03:05:49;7.80;;;7.10;;
20179;SDS011;10249;48.900;9.090;2023-02-04T03:08:17;7.87;;;7.27;;
20179;SDS011;10249;48.900;9.090;2023-02-04T03:10:45;9.83;;;6.97;;
20179;SDS011;10249;48.900;9.090;2023-02-04T03:13:13;7.23;;;6.53;;
20179;SDS011;10249;48.900;9.090;2023-02-04T03:15:42;7.27;;;6.53;;
20179;SDS011;10249;48.900;9.090;2023-02-04T03:18:11;7.50;;;6.80;;
20179;SDS011;10249;48.900;9.090;2023-02-04T03:20:39;10.47;;;6.80;;
20179;SDS011;10249;48.900;9.090;2023-02-04T03:23:06;8.07;;;6.60;;
20179;SDS011;10249;48.900;9.090;2023-02-04T03:25:33;5.20;;;5.00;;
20179;SDS011;10249;48.900;9.090;2023-02-04T03:28:00;8.40;;;5.73;;
20179;SDS011;10249;48.900;9.090;2023-02-04T03:30:27;7.33;;;5.83;;
20179;SDS011;10249;48.900;9.090;2023-02-04T03:32:56;5.63;;;5.13;;
20179;SDS011;10249;48.900;9.090;2023-02-04T03:35:23;8.17;;;5.20;;
20179;SDS011;10249;48.900;9.090;2023-02-04T03:37:50;9.93;;;5.60;;
20179;SDS011;10249;48.900;9.090;2023-02-04T03:40:17;7.20;;;5.30;;
20179;SDS011;10249;48.900;9.090;2023-02-04T03:42:44;11.90;;;4.63;;
20179;SDS011;10249;48.900;9.090;2023-02-04T03:45:11;8.63;;;5.83;;
20179;SDS011;10249;48.900;9.090;2023-02-04T03:47:38;5.70;;;5.20;;
20179;SDS011;10249;48.900;9.090;2023-02-04T03:50:07;8.50;;;5.67;;
20179;SDS011;10249;48.900;9.090;2023-02-04T03:52:37;5.47;;;4.30;;
20179;SDS011;10249;48.900;9.090;2023-02-04T03:55:04;10.97;;;5.40;;
20179;SDS011;10249;48.900;9.090;2023-02-04T03:57:31;7.17;;;5.23;;
20179;SDS011;10249;48.900;9.090;2023-02-04T03:59:58;4.70;;;3.93;;
20179;SDS011;10249;48.900;9.090;2023-02-04T04:02:25;6.40;;;4.37;;
20179;SDS011;10249;48.900;9.090;2023-02-04T04:04:52;7.33;;;5.00;;
20179;SDS011;10249;48.900;9.090;2023-02-04T04:07:21;7.80;;;5.00;;
20179;SDS011;10249;48.900;9.090;2023-02-04T04:09:48;9.23;;;5.23;;
20179;SDS011;10249;48.900;9.090;2023-02-04T04:12:15;5.23;;;4.00;;
20179;SDS011;10249;48.900;9.090;2023-02-04T04:14:42;8.55;;;5.43;;
20179;SDS011;10249;48.900;9.090;2023-02-04T04:17:09;6.50;;;4.80;;
20179;SDS011;10249;48.900;9.090;2023-02-04T04:19:36;6.60;;;5.87;;
20179;SDS011;10249;48.900;9.090;2023-02-04T04:22:04;6.03;;;5.23;;
20179;SDS011;10249;48.900;9.090;2023-02-04T04:24:32;5.37;;;4.80;;
20179;SDS011;10249;48.900;9.090;2023-02-04T04:26:59;7.17;;;4.50;;
20179;SDS011;10249;48.900;9.090;2023-02-04T04:29:26;6.07;;;4.57;;
20179;SDS011;10249;48.900;9.090;2023-02-04T04:31:53;5.57;;;4.97;;
20179;SDS011;10249;48.900;9.090;2023-02-04T04:34:20;7.67;;;5.33;;
20179;SDS011;10249;48.900;9.090;2023-02-04T04:36:47;8.00;;;5.57;;
20179;SDS011;10249;48.900;9.090;2023-02-04T04:39:15;4.57;;;4.23;;
20179;SDS011;10249;48.900;9.090;2023-02-04T04:41:43;4.10;;;3.90;;
20179;SDS011;10249;48.900;9.090;2023-02-04T04:44:10;6.50;;;4.87;;
20179;SDS011;10249;48.900;9.090;2023-02-04T04:46:37;5.77;;;5.13;;
20179;SDS011;10249;48.900;9.090;2023-02-04T04:49:05;7.97;;;5.47;;
20179;SDS011;10249;48.900;9.090;2023-02-04T04:51:32;6.87;;;5.20;;
20179;SDS011;10249;48.900;9.090;2023-02-04T04:53:59;8.70;;;5.23;;
20179;SDS011;10249;48.900;9.090;2023-02-04T04:56:26;7.70;;;4.77;;
20179;SDS011;10249;48.900;9.090;2023-02-04T04:58:55;5.30;;;4.57;;
20179;SDS011;10249;48.900;9.090;2023-02-04T05:01:22;3.83;;;3.63;;
20179;SDS011;10249;48.900;9.090;2023-02-04T05:03:49;5.53;;;4.67;;
20179;SDS011;10249;48.900;9.090;2023-02-04T05:06:16;7.27;;;5.07;;
20179;SDS011;10249;48.900;9.090;2023-02-04T05:08:49;6.73;;;5.10;;
20179;SDS011;10249;48.900;9.090;2023-02-04T05:11:16;5.03;;;3.53;;
20179;SDS011;10249;48.900;9.090;2023-02-04T05:13:43;2.93;;;2.83;;
20179;SDS011;10249;48.900;9.090;2023-02-04T05:16:12;3.60;;;3.40;;
20179;SDS011;10249;48.900;9.090;2023-02-04T05:18:39;5.13;;;3.63;;
20179;SDS011;10249;48.900;9.090;2023-02-04T05:21:06;2.90;;;2.80;;
20179;SDS011;10249;48.900;9.090;2023-02-04T05:23:33;4.07;;;3.77;;
20179;SDS011;10249;48.900;9.090;2023-02-04T05:26:00;6.17;;;5.23;;
20179;SDS011;10249;48.900;9.090;2023-02-04T05:28:27;7.43;;;5.30;;
20179;SDS011;10249;48.900;9.090;2023-02-04T05:30:54;5.77;;;4.10;;
20179;SDS011;10249;48.900;9.090;2023-02-04T05:33:23;10.23;;;6.83;;
20179;SDS011;10249;48.900;9.090;2023-02-04T05:35:51;8.10;;;5.47;;
20179;SDS011;10249;48.900;9.090;2023-02-04T05:38:18;5.57;;;5.10;;
20179;SDS011;10249;48.900;9.090;2023-02-04T05:40:45;4.13;;;3.83;;
20179;SDS011;10249;48.900;9.090;2023-02-04T05:43:12;3.07;;;2.97;;
20179;SDS011;10249;48.900;9.090;2023-02-04T05:45:39;4.23;;;3.80;;
20179;SDS011;10249;48.900;9.090;2023-02-04T05:48:06;9.47;;;4.87;;
20179;SDS011;10249;48.900;9.090;2023-02-04T05:50:34;5.33;;;4.37;;
20179;SDS011;10249;48.900;9.090;2023-02-04T05:53:01;12.17;;;5.20;;
20179;SDS011;10249;48.900;9.090;2023-02-04T05:55:29;10.20;;;6.80;;
20179;SDS011;10249;48.900;9.090;2023-02-04T05:57:56;4.70;;;4.40;;
20179;SDS011;10249;48.900;9.090;2023-02-04T06:00:23;5.47;;;4.97;;
20179;SDS011;10249;48.900;9.090;2023-02-04T06:02:50;11.53;;;7.37;;
20179;SDS011;10249;48.900;9.090;2023-02-04T06:05:17;10.27;;;7.60;;
20179;SDS011;10249;48.900;9.090;2023-02-04T06:07:45;9.87;;;7.47;;
20179;SDS011;10249;48.900;9.090;2023-02-04T06:10:12;10.40;;;7.40;;
20179;SDS011;10249;48.900;9.090;2023-02-04T06:12:39;4.50;;;4.10;;
20179;SDS011;10249;48.900;9.090;2023-02-04T06:15:07;13.67;;;7.13;;
20179;SDS011;10249;48.900;9.090;2023-02-04T06:17:34;11.07;;;7.30;;
20179;SDS011;10249;48.900;9.090;2023-02-04T06:20:02;9.43;;;5.47;;
20179;SDS011;10249;48.900;9.090;2023-02-04T06:22:29;10.83;;;5.80;;
20179;SDS011;10249;48.900;9.090;2023-02-04T06:24:57;12.33;;;6.27;;
20179;SDS011;10249;48.900;9.090;2023-02-04T06:27:24;13.33;;;7.73;;
20179;SDS011;10249;48.900;9.090;2023-02-04T06:29:52;12.37;;;7.40;;
20179;SDS011;10249;48.900;9.090;2023-02-04T06:32:19;11.67;;;6.70;;
20179;SDS011;10249;48.900;9.090;2023-02-04T06:34:46;10.17;;;6.00;;
20179;SDS011;10249;48.900;9.090;2023-02-04T06:37:13;8.17;;;4.27;;
20179;SDS011;10249;48.900;9.090;2023-02-04T06:39:41;15.07;;;6.97;;
20179;SDS011;10249;48.900;9.090;2023-02-04T06:42:09;15.33;;;6.90;;
20179;SDS011;10249;48.900;9.090;2023-02-04T06:44:36;19.27;;;7.43;;
20179;SDS011;10249;48.900;9.090;2023-02-04T06:47:03;7.83;;;5.73;;
20179;SDS011;10249;48.900;9.090;2023-02-04T06:49:30;12.93;;;7.80;;
20179;SDS011;10249;48.900;9.090;2023-02-04T06:51:58;13.30;;;7.23;;
20179;SDS011;10249;48.900;9.090;2023-02-04T06:54:25;13.47;;;7.80;;
20179;SDS011;10249;48.900;9.090;2023-02-04T06:56:52;10.90;;;6.13;;
20179;SDS011;10249;48.900;9.090;2023-02-04T06:59:20;7.00;;;5.30;;
20179;SDS011;10249;48.900;9.090;2023-02-04T07:01:49;14.93;;;7.77;;
20179;SDS011;10249;48.900;9.090;2023-02-04T07:04:16;12.83;;;6.07;;
20179;SDS011;10249;48.900;9.090;2023-02-04T07:06:43;8.33;;;5.50;;
20179;SDS011;10249;48.900;9.090;2023-02-04T07:09:10;10.13;;;6.67;;
20179;SDS011;10249;48.900;9.090;2023-02-04T07:11:37;12.37;;;6.00;;
20179;SDS011;10249;48.900;9.090;2023-02-04T07:14:04;7.20;;;6.40;;
20179;SDS011;10249;48.900;9.090;2023-02-04T07:16:33;8.93;;;6.30;;
20179;SDS011;10249;48.900;9.090;2023-02-04T07:19:00;12.43;;;7.07;;
20179;SDS011;10249;48.900;9.090;2023-02-04T07:21:27;14.30;;;4.47;;
20179;SDS011;10249;48.900;9.090;2023-02-04T07:23:54;10.43;;;5.70;;
20179;SDS011;10249;48.900;9.090;2023-02-04T07:26:21;12.07;;;6.73;;
20179;SDS011;10249;48.900;9.090;2023-02-04T07:28:48;13.67;;;6.47;;
20179;SDS011;10249;48.900;9.090;2023-02-04T07:31:16;8.70;;;5.20;;
20179;SDS011;10249;48.900;9.090;2023-02-04T07:33:44;8.63;;;6.77;;
20179;SDS011;10249;48.900;9.090;2023-02-04T07:36:12;12.63;;;6.23;;
20179;SDS011;10249;48.900;9.090;2023-02-04T07:38:39;11.07;;;4.60;;
20179;SDS011;10249;48.900;9.090;2023-02-04T07:41:06;4.10;;;3.67;;
20179;SDS011;10249;48.900;9.090;2023-02-04T07:43:33;10.47;;;6.10;;
20179;SDS011;10249;48.900;9.090;2023-02-04T07:46:00;8.20;;;4.90;;
20179;SDS011;10249;48.900;9.090;2023-02-04T07:48:27;9.30;;;6.13;;
20179;SDS011;10249;48.900;9.090;2023-02-04T07:50:55;7.37;;;5.57;;
20179;SDS011;10249;48.900;9.090;2023-02-04T07:53:22;11.50;;;7.00;;
20179;SDS011;10249;48.900;9.090;2023-02-04T07:55:50;10.87;;;6.03;;
20179;SDS011;10249;48.900;9.090;2023-02-04T07:58:17;12.77;;;6.20;;
20179;SDS011;10249;48.900;9.090;2023-02-04T08:00:44;9.70;;;6.63;;
20179;SDS011;10249;48.900;9.090;2023-02-04T08:03:11;15.33;;;3.30;;
20179;SDS011;10249;48.900;9.090;2023-02-04T08:05:38;3.57;;;3.30;;
20179;SDS011;10249;48.900;9.090;2023-02-04T08:08:06;3.57;;;3.47;;
20179;SDS011;10249;48.900;9.090;2023-02-04T08:10:33;3.17;;;3.07;;
20179;SDS011;10249;48.900;9.090;2023-02-04T08:13:00;3.73;;;3.63;;
20179;SDS011;10249;48.900;9.090;2023-02-04T08:15:27;3.43;;;3.13;;
20179;SDS011;10249;48.900;9.090;2023-02-04T08:17:54;5.60;;;5.23;;
20179;SDS011;10249;48.900;9.090;2023-02-04T08:20:21;2.90;;;2.80;;
20179;SDS011;10249;48.900;9.090;2023-02-04T08:22:48;4.63;;;4.23;;
20179;SDS011;10249;48.900;9.090;2023-02-04T08:25:17;17.27;;;6.80;;
20179;SDS011;10249;48.900;9.090;2023-02-04T08:27:44;4.57;;;4.27;;
20179;SDS011;10249;48.900;9.090;2023-02-04T08:30:11;5.30;;;4.83;;
20179;SDS011;10249;48.900;9.090;2023-02-04T08:32:38;6.20;;;5.63;;
20179;SDS011;10249;48.900;9.090;2023-02-04T08:35:06;6.77;;;4.70;;
20179;SDS011;10249;48.900;9.090;2023-02-04T08:37:33;4.47;;;4.20;;
20179;SDS011;10249;48.900;9.090;2023-02-04T08:40:00;2.63;;;2.53;;
20179;SDS011;10249;48.900;9.090;2023-02-04T08:42:29;8.90;;;6.80;;
20179;SDS011;10249;48.900;9.090;2023-02-04T08:44:56;7.77;;;4.53;;
20179;SDS011;10249;48.900;9.090;2023-02-04T08:47:23;9.63;;;7.70;;
20179;SDS011;10249;48.900;9.090;2023-02-04T08:49:50;8.27;;;6.60;;
20179;SDS011;10249;48.900;9.090;2023-02-04T08:52:17;15.77;;;8.50;;
20179;SDS011;10249;48.900;9.090;2023-02-04T08:54:44;10.10;;;7.10;;
20179;SDS011;10249;48.900;9.090;2023-02-04T08:57:11;5.83;;;5.27;;
20179;SDS011;10249;48.900;9.090;2023-02-04T08:59:40;7.57;;;6.80;;
20179;SDS011;10249;48.900;9.090;2023-02-04T09:02:08;10.77;;;6.17;;
20179;SDS011;10249;48.900;9.090;2023-02-04T09:04:35;6.23;;;5.63;;
20179;SDS011;10249;48.900;9.090;2023-02-04T09:07:02;11.40;;;6.97;;
20179;SDS011;10249;48.900;9.090;2023-02-04T09:09:29;7.30;;;6.60;;
20179;SDS011;10249;48.900;9.090;2023-02-04T09:11:56;6.40;;;6.00;;
20179;SDS011;10249;48.900;9.090;2023-02-04T09:14:25;11.37;;;8.37;;
20179;SDS011;10249;48.900;9.090;2023-02-04T09:16:54;11.40;;;10.23;;
20179;SDS011;10249;48.900;9.090;2023-02-04T09:19:21;7.50;;;7.23;;
20179;SDS011;10249;48.900;9.090;2023-02-04T09:21:49;11.17;;;10.13;;
20179;SDS011;10249;48.900;9.090;2023-02-04T09:24:16;9.83;;;9.20;;
20179;SDS011;10249;48.900;9.090;2023-02-04T09:26:43;9.20;;;8.90;;
20179;SDS011;10249;48.900;9.090;2023-02-04T09:29:11;13.37;;;12.00;;
20179;SDS011;10249;48.900;9.090;2023-02-04T09:31:38;10.10;;;9.80;;
20179;SDS011;10249;48.900;9.090;2023-02-04T09:34:06;11.90;;;11.00;;
20179;SDS011;10249;48.900;9.090;2023-02-04T09:36:33;11.37;;;10.70;;
20179;SDS011;10249;48.900;9.090;2023-02-04T09:39:02;11.00;;;10.60;;
20179;SDS011;10249;48.900;9.090;2023-02-04T09:41:30;11.80;;;11.20;;
20179;SDS011;10249;48.900;9.090;2023-02-04T09:43:57;12.37;;;11.70;;
20179;SDS011;10249;48.900;9.090;2023-02-04T09:46:25;14.13;;;13.20;;
20179;SDS011;10249;48.900;9.090;2023-02-04T09:48:54;12.37;;;11.87;;
20179;SDS011;10249;48.900;9.090;2023-02-04T09:51:24;11.90;;;11.50;;
20179;SDS011;10249;48.900;9.090;2023-02-04T09:53:52;12.50;;;11.90;;
20179;SDS011;10249;48.900;9.090;2023-02-04T09:56:26;14.20;;;13.00;;
20179;SDS011;10249;48.900;9.090;2023-02-04T09:58:54;12.63;;;12.00;;
20179;SDS011;10249;48.900;9.090;2023-02-04T10:01:21;11.63;;;11.20;;
20179;SDS011;10249;48.900;9.090;2023-02-04T10:03:48;12.10;;;11.60;;
20179;SDS011;10249;48.900;9.090;2023-02-04T10:06:16;12.47;;;11.90;;
20179;SDS011;10249;48.900;9.090;2023-02-04T10:08:45;11.87;;;11.37;;
20179;SDS011;10249;48.900;9.090;2023-02-04T10:11:12;13.57;;;12.70;;
20179;SDS011;10249;48.900;9.090;2023-02-04T10:13:41;11.27;;;10.77;;
20179;SDS011;10249;48.900;9.090;2023-02-04T10:16:11;14.30;;;12.90;;
20179;SDS011;10249;48.900;9.090;2023-02-04T10:18:39;10.93;;;10.53;;
20179;SDS011;10249;48.900;9.090;2023-02-04T10:21:11;13.80;;;12.70;;
20179;SDS011;10249;48.900;9.090;2023-02-04T10:23:38;14.03;;;12.80;;
20179;SDS011;10249;48.900;9.090;2023-02-04T10:26:09;17.57;;;11.70;;
20179;SDS011;10249;48.900;9.090;2023-02-04T10:28:36;14.03;;;12.80;;
20179;SDS011;10249;48.900;9.090;2023-02-04T10:31:04;13.50;;;12.63;;
20179;SDS011;10249;48.900;9.090;2023-02-04T10:33:32;11.70;;;11.30;;
20179;SDS011;10249;48.900;9.090;2023-02-04T10:36:02;12.07;;;11.57;;
20179;SDS011;10249;48.900;9.090;2023-02-04T10:38:30;12.30;;;11.80;;
20179;SDS011;10249;48.900;9.090;2023-02-04T10:41:00;13.43;;;12.83;;
20179;SDS011;10249;48.900;9.090;2023-02-04T10:43:28;12.80;;;12.30;;
20179;SDS011;10249;48.900;9.090;2023-02-04T10:45:56;13.63;;;12.53;;
20179;SDS011;10249;48.900;9.090;2023-02-04T10:48:24;12.40;;;11.90;;
20179;SDS011;10249;48.900;9.090;2023-02-04T10:50:54;13.23;;;12.73;;
20179;SDS011;10249;48.900;9.090;2023-02-04T10:53:22;13.80;;;13.20;;
20179;SDS011;10249;48.900;9.090;2023-02-04T10:56:08;13.50;;;13.00;;
20179;SDS011;10249;48.900;9.090;2023-02-04T10:58:41;12.80;;;12.30;;
20179;SDS011;10249;48.900;9.090;2023-02-04T11:01:09;14.63;;;13.40;;
20179;SDS011;10249;48.900;9.090;2023-02-04T11:03:36;14.30;;;13.33;;
20179;SDS011;10249;48.900;9.090;2023-02-04T11:06:07;14.53;;;13.80;;
20179;SDS011;10249;48.900;9.090;2023-02-04T11:08:36;13.13;;;12.63;;
20179;SDS011;10249;48.900;9.090;2023-02-04T11:11:04;13.43;;;12.93;;
20179;SDS011;10249;48.900;9.090;2023-02-04T11:13:39;15.03;;;13.87;;
20179;SDS011;10249;48.900;9.090;2023-02-04T11:16:09;14.07;;;13.47;;
20179;SDS011;10249;48.900;9.090;2023-02-04T11:18:44;15.60;;;14.80;;
20179;SDS011;10249;48.900;9.090;2023-02-04T11:21:13;43.33;;;41.83;;
20179;SDS011;10249;48.900;9.090;2023-02-04T11:23:40;44.53;;;42.93;;
20179;SDS011;10249;48.900;9.090;2023-02-04T11:26:08;44.50;;;42.90;;
20179;SDS011;10249;48.900;9.090;2023-02-04T11:28:38;46.57;;;44.57;;
20179;SDS011;10249;48.900;9.090;2023-02-04T11:31:13;42.93;;;41.43;;
20179;SDS011;10249;48.900;9.090;2023-02-04T11:33:41;44.97;;;43.37;;
20179;SDS011;10249;48.900;9.090;2023-02-04T11:36:09;46.03;;;44.33;;
20179;SDS011;10249;48.900;9.090;2023-02-04T11:38:37;46.43;;;44.73;;
20179;SDS011;10249;48.900;9.090;2023-02-04T11:41:04;46.23;;;44.53;;
20179;SDS011;10249;48.900;9.090;2023-02-04T11:43:32;47.87;;;46.17;;
20179;SDS011;10249;48.900;9.090;2023-02-04T11:46:00;48.77;;;46.97;;
20179;SDS011;10249;48.900;9.090;2023-02-04T11:48:29;50.50;;;48.50;;
20179;SDS011;10249;48.900;9.090;2023-02-04T11:50:59;48.37;;;46.57;;
20179;SDS011;10249;48.900;9.090;2023-02-04T11:53:27;45.17;;;43.53;;
20179;SDS011;10249;48.900;9.090;2023-02-04T11:55:55;48.33;;;46.07;;
20179;SDS011;10249;48.900;9.090;2023-02-04T11:58:22;45.83;;;44.13;;
20179;SDS011;10249;48.900;9.090;2023-02-04T12:00:50;45.53;;;43.83;;
20179;SDS011;10249;48.900;9.090;2023-02-04T12:03:21;47.87;;;46.07;;
20179;SDS011;10249;48.900;9.090;2023-02-04T12:05:50;46.23;;;44.53;;
20179;SDS011;10249;48.900;9.090;2023-02-04T12:08:26;45.33;;;43.63;;
20179;SDS011;10249;48.900;9.090;2023-02-04T12:11:00;45.93;;;44.23;;
20179;SDS011;10249;48.900;9.090;2023-02-04T12:13:28;46.10;;;44.40;;
20179;SDS011;10249;48.900;9.090;2023-02-04T12:15:57;46.07;;;43.73;;
20179;SDS011;10249;48.900;9.090;2023-02-04T12:18:24;44.73;;;42.57;;
20179;SDS011;10249;48.900;9.090;2023-02-04T12:20:54;42.73;;;41.13;;
20179;SDS011;10249;48.900;9.090;2023-02-04T12:23:21;43.30;;;41.70;;
20179;SDS011;10249;48.900;9.090;2023-02-04T12:25:49;44.37;;;42.77;;
20179;SDS011;10249;48.900;9.090;2023-02-04T12:28:16;42.50;;;40.90;;
20179;SDS011;10249;48.900;9.090;2023-02-04T12:30:43;46.23;;;43.97;;
20179;SDS011;10249;48.900;9.090;2023-02-04T12:33:10;46.50;;;43.60;;
20179;SDS011;10249;48.900;9.090;2023-02-04T12:35:37;43.40;;;40.97;;
20179;SDS011;10249;48.900;9.090;2023-02-04T12:38:05;44.17;;;42.13;;
20179;SDS011;10249;48.900;9.090;2023-02-04T12:40:33;44.03;;;42.33;;
20179;SDS011;10249;48.900;9.090;2023-02-04T12:43:00;45.27;;;43.67;;
20179;SDS011;10249;48.900;9.090;2023-02-04T12:45:27;44.83;;;43.23;;
20179;SDS011;10249;48.900;9.090;2023-02-04T12:47:55;46.33;;;44.63;;
20179;SDS011;10249;48.900;9.090;2023-02-04T12:50:22;45.83;;;44.13;;
20179;SDS011;10249;48.900;9.090;2023-02-04T12:52:50;44.43;;;42.83;;
20179;SDS011;10249;48.900;9.090;2023-02-04T12:55:19;46.67;;;44.97;;
20179;SDS011;10249;48.900;9.090;2023-02-04T12:57:46;47.57;;;45.87;;
20179;SDS011;10249;48.900;9.090;2023-02-04T13:00:14;46.17;;;44.47;;
20179;SDS011;10249;48.900;9.090;2023-02-04T13:02:42;47.60;;;45.87;;
20179;SDS011;10249;48.900;9.090;2023-02-04T13:05:09;48.83;;;47.03;;
20179;SDS011;10249;48.900;9.090;2023-02-04T13:07:36;50.07;;;48.17;;
20179;SDS011;10249;48.900;9.090;2023-02-04T13:10:05;48.83;;;47.03;;
20179;SDS011;10249;48.900;9.090;2023-02-04T13:12:33;49.87;;;48.07;;
20179;SDS011;10249;48.900;9.090;2023-02-04T13:15:00;51.80;;;49.80;;
20179;SDS011;10249;48.900;9.090;2023-02-04T13:17:27;49.00;;;47.20;;
20179;SDS011;10249;48.900;9.090;2023-02-04T13:19:54;50.27;;;48.47;;
20179;SDS011;10249;48.900;9.090;2023-02-04T13:22:22;46.87;;;45.17;;
20179;SDS011;10249;48.900;9.090;2023-02-04T13:24:49;46.47;;;44.77;;
20179;SDS011;10249;48.900;9.090;2023-02-04T13:27:16;46.37;;;44.67;;
20179;SDS011;10249;48.900;9.090;2023-02-04T13:29:45;46.90;;;44.70;;
20179;SDS011;10249;48.900;9.090;2023-02-04T13:32:12;43.90;;;42.30;;
20179;SDS011;10249;48.900;9.090;2023-02-04T13:34:39;45.57;;;43.87;;
20179;SDS011;10249;48.900;9.090;2023-02-04T13:37:06;46.03;;;44.33;;
20179;SDS011;10249;48.900;9.090;2023-02-04T13:39:33;45.93;;;44.27;;
20179;SDS011;10249;48.900;9.090;2023-02-04T13:42:00;45.17;;;43.57;;
20179;SDS011;10249;48.900;9.090;2023-02-04T13:44:27;45.60;;;43.90;;
20179;SDS011;10249;48.900;9.090;2023-02-04T13:46:56;45.07;;;43.47;;
20179;SDS011;10249;48.900;9.090;2023-02-04T13:49:23;41.90;;;40.40;;
20179;SDS011;10249;48.900;9.090;2023-02-04T13:51:50;44.07;;;42.47;;
20179;SDS011;10249;48.900;9.090;2023-02-04T13:54:17;44.67;;;43.07;;
20179;SDS011;10249;48.900;9.090;2023-02-04T13:56:44;43.10;;;41.60;;
20179;SDS011;10249;48.900;9.090;2023-02-04T13:59:11;43.50;;;41.90;;
20179;SDS011;10249;48.900;9.090;2023-02-04T14:01:38;45.70;;;44.10;;
20179;SDS011;10249;48.900;9.090;2023-02-04T14:04:07;46.37;;;44.23;;
20179;SDS011;10249;48.900;9.090;2023-02-04T14:06:34;45.30;;;43.40;;
20179;SDS011;10249;48.900;9.090;2023-02-04T14:09:07;44.70;;;42.37;;
20179;SDS011;10249;48.900;9.090;2023-02-04T14:11:35;45.80;;;44.10;;
20179;SDS011;10249;48.900;9.090;2023-02-04T14:14:02;45.63;;;44.03;;
20179;SDS011;10249;48.900;9.090;2023-02-04T14:16:29;43.17;;;41.63;;
20179;SDS011;10249;48.900;9.090;2023-02-04T14:18:56;46.67;;;44.80;;
20179;SDS011;10249;48.900;9.090;2023-02-04T14:21:24;43.40;;;41.80;;
20179;SDS011;10249;48.900;9.090;2023-02-04T14:23:52;44.53;;;42.93;;
20179;SDS011;10249;48.900;9.090;2023-02-04T14:26:19;46.17;;;44.10;;
20179;SDS011;10249;48.900;9.090;2023-02-04T14:28:46;47.73;;;45.00;;
20179;SDS011;10249;48.900;9.090;2023-02-04T14:31:13;47.67;;;45.87;;
20179;SDS011;10249;48.900;9.090;2023-02-04T14:33:40;47.10;;;45.20;;
20179;SDS011;10249;48.900;9.090;2023-02-04T14:36:07;46.10;;;44.40;;
20179;SDS011;10249;48.900;9.090;2023-02-04T14:38:35;45.53;;;43.83;;